SBFZ Airport Information

Runway Information
Runway 13 Length 8350 ft width 148 ft
Elevation 82 ft Threshold 0 ft Heading 105
Runway 31 Length 8350 ft Width 148 ft
Elevation 65 ft Threshold 0 ft Heading 285
Airport Frequencies
Type APP Name FORTALEZA Frequency 133 MHZ
Type ATIS Name ATIS Frequency 127.7 MHZ
Type GND Name GND Frequency 121.95 MHZ
Type OPS Name FORTALEZA Frequency 122.5 MHZ
Type TWR Name FORTALEZA Frequency 129 MHZ
Airport Navaids
Type VOR-DME Name Fortaleza Frequency 114100 KHZ
Type NDB Name Fortaleza Frequency 260 KHZ
Airport Weather Information & NOTAM
ADDS - METARS form results

(2226 UTC 20 June 2018)
 
METAR text: SBFZ 202200Z 09008KT CAVOK 27/22 Q1015
Conditions at: SBFZ (FORTALEZA/PINTO , BR) observed 2200 UTC 20 June 2018
Temperature: 27.0°C (81°F)
Dewpoint: 22.0°C (72°F) [RH = 74%]
Pressure (altimeter): 29.97 inches Hg (1015.0 mb)
Winds: from the E (90 degrees) at 9 MPH (8 knots; 4.2 m/s)
Visibility: 6 or more miles (10+ km)
Ceiling: ceiling and visibility are OK
Clouds: unknown
Weather: no significant weather observed at this time